Time;durP1;ratioP1;P1;durP2;ratioP2;P2;SDS_P1;SDS_P2;PMS_P1;PMS_P2;Temp;Humidity;BMP_temperature;BMP_pressure;BME280_temperature;BME280_humidity;BME280_pressure;Samples;Min_cycle;Max_cycle;Signal;HPM_P1;HPM_P2
2021/01/21 00:00:54;;;;;;;8.850001;5.05;;;;;;;-2.22;100;93981.52;;;;
2021/01/21 00:01:54;;;;;;;8.850001;5.05;;;;;;;-2.22;100;93981.52;;;;
2021/01/21 00:02:55;;;;;;;8.850001;5.05;;;;;;;-2.22;100;93981.52;;;;
2021/01/21 00:03:55;;;;;;;8.850001;5.05;;;;;;;-2.22;100;93981.52;;;;
2021/01/21 00:04:56;;;;;;;8.850001;5.05;;;;;;;-2.22;100;93981.52;;;;
2021/01/21 00:05:56;;;;;;;8.850001;5.05;;;;;;;-2.22;100;93981.52;;;;
2021/01/21 00:06:57;;;;;;;8.850001;5.05;;;;;;;-2.22;100;93981.52;;;;
2021/01/21 00:07:57;;;;;;;8.850001;5.05;;;;;;;-2.22;100;93981.52;;;;
2021/01/21 00:08:57;;;;;;;8.850001;5.05;;;;;;;-2.22;100;93981.52;;;;
2021/01/21 00:09:58;;;;;;;8.850001;5.05;;;;;;;-2.22;100;93981.52;;;;
2021/01/21 00:10:59;;;;;;;8.850001;5.05;;;;;;;-2.22;100;93981.52;;;;
2021/01/21 00:11:59;;;;;;;7.900001;4.1;;;;;;;-2.2;100;93964.14;;;;
2021/01/21 00:13:00;;;;;;;7.900001;4.1;;;;;;;-2.2;100;93964.14;;;;
2021/01/21 00:14:00;;;;;;;7.900001;4.1;;;;;;;-2.2;100;93964.14;;;;
2021/01/21 00:15:01;;;;;;;7.900001;4.1;;;;;;;-2.2;100;93964.14;;;;
2021/01/21 00:16:02;;;;;;;7.900001;4.1;;;;;;;-2.2;100;93964.14;;;;
2021/01/21 00:17:03;;;;;;;7.900001;4.1;;;;;;;-2.2;100;93964.14;;;;
2021/01/21 00:18:04;;;;;;;7.900001;4.1;;;;;;;-2.2;100;93964.14;;;;
2021/01/21 00:19:05;;;;;;;7.900001;4.1;;;;;;;-2.2;100;93964.14;;;;
2021/01/21 00:20:05;;;;;;;7.900001;4.1;;;;;;;-2.2;100;93964.14;;;;
2021/01/21 00:21:07;;;;;;;7.900001;4.1;;;;;;;-2.2;100;93964.14;;;;
2021/01/21 00:22:07;;;;;;;9.550001;4.1;;;;;;;-2.13;100;93940.8;;;;
2021/01/21 00:23:08;;;;;;;9.550001;4.1;;;;;;;-2.13;100;93940.8;;;;
2021/01/21 00:24:08;;;;;;;9.550001;4.1;;;;;;;-2.13;100;93940.8;;;;
2021/01/21 00:25:09;;;;;;;9.550001;4.1;;;;;;;-2.13;100;93940.8;;;;
2021/01/21 00:26:10;;;;;;;9.550001;4.1;;;;;;;-2.13;100;93940.8;;;;
2021/01/21 00:27:11;;;;;;;9.550001;4.1;;;;;;;-2.13;100;93940.8;;;;
2021/01/21 00:28:11;;;;;;;9.550001;4.1;;;;;;;-2.13;100;93940.8;;;;
2021/01/21 00:29:12;;;;;;;9.550001;4.1;;;;;;;-2.13;100;93940.8;;;;
2021/01/21 00:30:13;;;;;;;9.550001;4.1;;;;;;;-2.13;100;93940.8;;;;
2021/01/21 00:31:14;;;;;;;9.550001;4.1;;;;;;;-2.13;100;93940.8;;;;
2021/01/21 00:32:15;;;;;;;9.550001;4.1;;;;;;;-2.13;100;93940.8;;;;
2021/01/21 00:33:15;;;;;;;6.9;3.25;;;;;;;-2.09;100;93935.03;;;;
2021/01/21 00:34:16;;;;;;;6.9;3.25;;;;;;;-2.09;100;93935.03;;;;
2021/01/21 00:35:17;;;;;;;6.9;3.25;;;;;;;-2.09;100;93935.03;;;;
2021/01/21 00:36:18;;;;;;;6.9;3.25;;;;;;;-2.09;100;93935.03;;;;
2021/01/21 00:37:18;;;;;;;6.9;3.25;;;;;;;-2.09;100;93935.03;;;;
2021/01/21 00:38:19;;;;;;;6.9;3.25;;;;;;;-2.09;100;93935.03;;;;
2021/01/21 00:39:19;;;;;;;6.9;3.25;;;;;;;-2.09;100;93935.03;;;;
2021/01/21 00:40:20;;;;;;;6.9;3.25;;;;;;;-2.09;100;93935.03;;;;
2021/01/21 00:41:20;;;;;;;6.9;3.25;;;;;;;-2.09;100;93935.03;;;;
2021/01/21 00:42:21;;;;;;;6.9;3.25;;;;;;;-2.09;100;93935.03;;;;
2021/01/21 00:43:21;;;;;;;3.55;2.55;;;;;;;-1.92;100;93929.25;;;;
2021/01/21 00:44:22;;;;;;;3.55;2.55;;;;;;;-1.92;100;93929.25;;;;
2021/01/21 00:45:22;;;;;;;3.55;2.55;;;;;;;-1.92;100;93929.25;;;;
2021/01/21 00:46:22;;;;;;;3.55;2.55;;;;;;;-1.92;100;93929.25;;;;
2021/01/21 00:47:23;;;;;;;3.55;2.55;;;;;;;-1.92;100;93929.25;;;;
2021/01/21 00:48:24;;;;;;;3.55;2.55;;;;;;;-1.92;100;93929.25;;;;
2021/01/21 00:49:25;;;;;;;3.55;2.55;;;;;;;-1.92;100;93929.25;;;;
2021/01/21 00:50:25;;;;;;;3.55;2.55;;;;;;;-1.92;100;93929.25;;;;
2021/01/21 00:51:26;;;;;;;3.55;2.55;;;;;;;-1.92;100;93929.25;;;;
2021/01/21 00:52:27;;;;;;;3.55;2.55;;;;;;;-1.92;100;93929.25;;;;
2021/01/21 00:53:27;;;;;;;3.55;2.55;;;;;;;-1.92;100;93929.25;;;;
2021/01/21 00:54:28;;;;;;;6.35;3.1;;;;;;;-1.67;100;93895.11;;;;
2021/01/21 00:55:28;;;;;;;6.35;3.1;;;;;;;-1.67;100;93895.11;;;;
2021/01/21 00:56:28;;;;;;;6.35;3.1;;;;;;;-1.67;100;93895.11;;;;
2021/01/21 00:57:29;;;;;;;6.35;3.1;;;;;;;-1.67;100;93895.11;;;;
2021/01/21 00:58:29;;;;;;;6.35;3.1;;;;;;;-1.67;100;93895.11;;;;
2021/01/21 00:59:30;;;;;;;6.35;3.1;;;;;;;-1.67;100;93895.11;;;;
2021/01/21 01:00:30;;;;;;;6.35;3.1;;;;;;;-1.67;100;93895.11;;;;
2021/01/21 01:01:31;;;;;;;6.35;3.1;;;;;;;-1.67;100;93895.11;;;;
2021/01/21 01:02:31;;;;;;;6.35;3.1;;;;;;;-1.67;100;93895.11;;;;
2021/01/21 01:03:32;;;;;;;6.35;3.1;;;;;;;-1.67;100;93895.11;;;;
2021/01/21 01:04:32;;;;;;;6.35;3.1;;;;;;;-1.67;100;93895.11;;;;
2021/01/21 01:05:33;;;;;;;3.55;2.1;;;;;;;-1.36;100;93906.55;;;;
2021/01/21 01:06:33;;;;;;;3.55;2.1;;;;;;;-1.36;100;93906.55;;;;
2021/01/21 01:07:34;;;;;;;3.55;2.1;;;;;;;-1.36;100;93906.55;;;;
2021/01/21 01:08:34;;;;;;;3.55;2.1;;;;;;;-1.36;100;93906.55;;;;
2021/01/21 01:09:35;;;;;;;3.55;2.1;;;;;;;-1.36;100;93906.55;;;;
2021/01/21 01:10:35;;;;;;;3.55;2.1;;;;;;;-1.36;100;93906.55;;;;
2021/01/21 01:11:36;;;;;;;3.55;2.1;;;;;;;-1.36;100;93906.55;;;;
2021/01/21 01:12:36;;;;;;;3.55;2.1;;;;;;;-1.36;100;93906.55;;;;
2021/01/21 01:13:37;;;;;;;3.55;2.1;;;;;;;-1.36;100;93906.55;;;;
2021/01/21 01:14:38;;;;;;;3.55;2.1;;;;;;;-1.36;100;93906.55;;;;
2021/01/21 01:15:38;;;;;;;2.85;1.55;;;;;;;-1.07;100;93907.17;;;;
2021/01/21 01:16:39;;;;;;;2.85;1.55;;;;;;;-1.07;100;93907.17;;;;
2021/01/21 01:17:39;;;;;;;2.85;1.55;;;;;;;-1.07;100;93907.17;;;;
2021/01/21 01:18:40;;;;;;;2.85;1.55;;;;;;;-1.07;100;93907.17;;;;
2021/01/21 01:19:40;;;;;;;2.85;1.55;;;;;;;-1.07;100;93907.17;;;;
2021/01/21 01:20:40;;;;;;;2.85;1.55;;;;;;;-1.07;100;93907.17;;;;
2021/01/21 01:21:42;;;;;;;2.85;1.55;;;;;;;-1.07;100;93907.17;;;;
2021/01/21 01:22:43;;;;;;;2.85;1.55;;;;;;;-1.07;100;93907.17;;;;
2021/01/21 01:23:49;;;;;;;2.85;1.55;;;;;;;-1.07;100;93907.17;;;;
2021/01/21 01:24:50;;;;;;;2.85;1.55;;;;;;;-1.07;100;93907.17;;;;
2021/01/21 01:25:53;;;;;;;2.85;1.55;;;;;;;-1.07;100;93907.17;;;;
2021/01/21 01:26:53;;;;;;;1.05;0.9;;;;;;;-0.37;100;93868.23;;;;
2021/01/21 01:27:54;;;;;;;1.05;0.9;;;;;;;-0.37;100;93868.23;;;;
2021/01/21 01:28:54;;;;;;;1.05;0.9;;;;;;;-0.37;100;93868.23;;;;
2021/01/21 01:29:55;;;;;;;1.05;0.9;;;;;;;-0.37;100;93868.23;;;;
2021/01/21 01:30:55;;;;;;;1.05;0.9;;;;;;;-0.37;100;93868.23;;;;
2021/01/21 01:31:56;;;;;;;1.05;0.9;;;;;;;-0.37;100;93868.23;;;;
2021/01/21 01:32:56;;;;;;;1.05;0.9;;;;;;;-0.37;100;93868.23;;;;
2021/01/21 01:33:57;;;;;;;1.05;0.9;;;;;;;-0.37;100;93868.23;;;;
2021/01/21 01:34:57;;;;;;;1.05;0.9;;;;;;;-0.37;100;93868.23;;;;
2021/01/21 01:35:58;;;;;;;1.05;0.9;;;;;;;-0.37;100;93868.23;;;;
2021/01/21 01:36:58;;;;;;;0.9;0.9;;;;;;;0.88;100;93867.7;;;;
2021/01/21 01:37:59;;;;;;;0.9;0.9;;;;;;;0.88;100;93867.7;;;;
2021/01/21 01:38:59;;;;;;;0.9;0.9;;;;;;;0.88;100;93867.7;;;;
2021/01/21 01:40:00;;;;;;;0.9;0.9;;;;;;;0.88;100;93867.7;;;;
2021/01/21 01:41:00;;;;;;;0.9;0.9;;;;;;;0.88;100;93867.7;;;;
2021/01/21 01:42:01;;;;;;;0.9;0.9;;;;;;;0.88;100;93867.7;;;;
2021/01/21 01:43:07;;;;;;;0.9;0.9;;;;;;;0.88;100;93867.7;;;;
2021/01/21 01:44:08;;;;;;;0.9;0.9;;;;;;;0.88;100;93867.7;;;;
2021/01/21 01:45:08;;;;;;;0.9;0.9;;;;;;;0.88;100;93867.7;;;;
2021/01/21 01:46:11;;;;;;;0.9;0.9;;;;;;;0.88;100;93867.7;;;;
2021/01/21 01:47:11;;;;;;;0.9;0.9;;;;;;;0.88;100;93867.7;;;;
2021/01/21 01:48:12;;;;;;;1.25;1.1;;;;;;;2.04;100;93866.28;;;;
2021/01/21 01:49:13;;;;;;;1.25;1.1;;;;;;;2.04;100;93866.28;;;;
2021/01/21 01:50:13;;;;;;;1.25;1.1;;;;;;;2.04;100;93866.28;;;;
2021/01/21 01:51:15;;;;;;;1.25;1.1;;;;;;;2.04;100;93866.28;;;;
2021/01/21 01:52:15;;;;;;;1.25;1.1;;;;;;;2.04;100;93866.28;;;;
2021/01/21 01:53:16;;;;;;;1.25;1.1;;;;;;;2.04;100;93866.28;;;;
2021/01/21 01:54:16;;;;;;;1.25;1.1;;;;;;;2.04;100;93866.28;;;;
2021/01/21 01:55:17;;;;;;;1.25;1.1;;;;;;;2.04;100;93866.28;;;;
2021/01/21 01:56:18;;;;;;;1.25;1.1;;;;;;;2.04;100;93866.28;;;;
2021/01/21 01:57:19;;;;;;;1.25;1.1;;;;;;;2.04;100;93866.28;;;;
2021/01/21 01:58:20;;;;;;;1.05;0.95;;;;;;;3.1;100;93893.8;;;;
2021/01/21 01:59:21;;;;;;;1.05;0.95;;;;;;;3.1;100;93893.8;;;;
2021/01/21 02:00:22;;;;;;;1.05;0.95;;;;;;;3.1;100;93893.8;;;;
2021/01/21 02:01:23;;;;;;;1.05;0.95;;;;;;;3.1;100;93893.8;;;;
2021/01/21 02:02:23;;;;;;;1.05;0.95;;;;;;;3.1;100;93893.8;;;;
2021/01/21 02:03:24;;;;;;;1.05;0.95;;;;;;;3.1;100;93893.8;;;;
2021/01/21 02:04:24;;;;;;;1.05;0.95;;;;;;;3.1;100;93893.8;;;;
2021/01/21 02:05:25;;;;;;;1.05;0.95;;;;;;;3.1;100;93893.8;;;;
2021/01/21 02:06:26;;;;;;;1.05;0.95;;;;;;;3.1;100;93893.8;;;;
2021/01/21 02:07:26;;;;;;;1.05;0.95;;;;;;;3.1;100;93893.8;;;;
2021/01/21 02:08:27;;;;;;;1.05;0.95;;;;;;;3.1;100;93893.8;;;;
2021/01/21 02:09:27;;;;;;;1.2;0.9;;;;;;;3.85;100;93908.79;;;;
2021/01/21 02:10:29;;;;;;;1.2;0.9;;;;;;;3.85;100;93908.79;;;;
2021/01/21 02:11:29;;;;;;;1.2;0.9;;;;;;;3.85;100;93908.79;;;;
2021/01/21 02:12:42;;;;;;;1.2;0.9;;;;;;;3.85;100;93908.79;;;;
2021/01/21 02:14:02;;;;;;;1.2;0.9;;;;;;;3.85;100;93908.79;;;;
2021/01/21 02:15:07;;;;;;;1.2;0.9;;;;;;;3.85;100;93908.79;;;;
2021/01/21 02:16:20;;;;;;;1.2;0.9;;;;;;;3.85;100;93908.79;;;;
2021/01/21 02:17:30;;;;;;;1.2;0.9;;;;;;;3.85;100;93908.79;;;;
2021/01/21 02:18:35;;;;;;;1.2;0.9;;;;;;;3.85;100;93908.79;;;;
2021/01/21 02:19:43;;;;;;;1.75;1.2;;;;;;;4.26;100;93916.75;;;;
2021/01/21 02:21:09;;;;;;;1.75;1.2;;;;;;;4.26;100;93916.75;;;;
2021/01/21 02:22:31;;;;;;;1.75;1.2;;;;;;;4.26;100;93916.75;;;;
2021/01/21 02:24:10;;;;;;;1.75;1.2;;;;;;;4.26;100;93916.75;;;;
2021/01/21 02:25:30;;;;;;;1.75;1.2;;;;;;;4.26;100;93916.75;;;;
2021/01/21 02:26:35;;;;;;;1.75;1.2;;;;;;;4.26;100;93916.75;;;;
2021/01/21 02:27:43;;;;;;;1.75;1.2;;;;;;;4.26;100;93916.75;;;;
2021/01/21 02:29:04;;;;;;;1.75;1.2;;;;;;;4.26;100;93916.75;;;;
2021/01/21 02:30:10;;;;;;;3.2;2.2;;;;;;;3.95;100;93928.55;;;;
2021/01/21 02:31:23;;;;;;;3.2;2.2;;;;;;;3.95;100;93928.55;;;;
2021/01/21 02:32:29;;;;;;;3.2;2.2;;;;;;;3.95;100;93928.55;;;;
2021/01/21 02:33:53;;;;;;;3.2;2.2;;;;;;;3.95;100;93928.55;;;;
2021/01/21 02:34:56;;;;;;;3.2;2.2;;;;;;;3.95;100;93928.55;;;;
2021/01/21 02:36:01;;;;;;;3.2;2.2;;;;;;;3.95;100;93928.55;;;;
2021/01/21 02:37:06;;;;;;;3.2;2.2;;;;;;;3.95;100;93928.55;;;;
2021/01/21 02:38:11;;;;;;;3.2;2.2;;;;;;;3.95;100;93928.55;;;;
2021/01/21 02:39:14;;;;;;;3.2;2.2;;;;;;;3.95;100;93928.55;;;;
2021/01/21 02:40:15;;;;;;;3.2;2.2;;;;;;;3.95;100;93928.55;;;;
2021/01/21 02:41:16;;;;;;;4.05;2.95;;;;;;;3.29;100;93904.22;;;;
2021/01/21 02:42:17;;;;;;;4.05;2.95;;;;;;;3.29;100;93904.22;;;;
2021/01/21 02:43:17;;;;;;;4.05;2.95;;;;;;;3.29;100;93904.22;;;;
2021/01/21 02:44:18;;;;;;;4.05;2.95;;;;;;;3.29;100;93904.22;;;;
2021/01/21 02:45:18;;;;;;;4.05;2.95;;;;;;;3.29;100;93904.22;;;;
2021/01/21 02:46:19;;;;;;;4.05;2.95;;;;;;;3.29;100;93904.22;;;;
2021/01/21 02:47:21;;;;;;;4.05;2.95;;;;;;;3.29;100;93904.22;;;;
2021/01/21 02:48:22;;;;;;;4.05;2.95;;;;;;;3.29;100;93904.22;;;;
2021/01/21 02:49:23;;;;;;;4.05;2.95;;;;;;;3.29;100;93904.22;;;;
2021/01/21 02:50:25;;;;;;;4.05;2.95;;;;;;;3.29;100;93904.22;;;;
2021/01/21 02:51:25;;;;;;;4.05;2.95;;;;;;;3.29;100;93904.22;;;;
2021/01/21 02:52:32;;;;;;;3.4;2.65;;;;;;;2.68;100;93892.49;;;;
2021/01/21 02:53:37;;;;;;;3.4;2.65;;;;;;;2.68;100;93892.49;;;;
2021/01/21 02:54:40;;;;;;;3.4;2.65;;;;;;;2.68;100;93892.49;;;;
2021/01/21 02:55:47;;;;;;;3.4;2.65;;;;;;;2.68;100;93892.49;;;;
2021/01/21 02:56:56;;;;;;;3.4;2.65;;;;;;;2.68;100;93892.49;;;;
2021/01/21 02:58:05;;;;;;;3.4;2.65;;;;;;;2.68;100;93892.49;;;;
2021/01/21 02:59:10;;;;;;;3.4;2.65;;;;;;;2.68;100;93892.49;;;;
2021/01/21 03:00:14;;;;;;;3.4;2.65;;;;;;;2.68;100;93892.49;;;;
2021/01/21 03:01:17;;;;;;;3.4;2.65;;;;;;;2.68;100;93892.49;;;;
2021/01/21 03:02:17;;;;;;;3.45;2.4;;;;;;;2.22;100;93886.8;;;;
2021/01/21 03:03:20;;;;;;;3.45;2.4;;;;;;;2.22;100;93886.8;;;;
2021/01/21 03:04:23;;;;;;;3.45;2.4;;;;;;;2.22;100;93886.8;;;;
2021/01/21 03:05:25;;;;;;;3.45;2.4;;;;;;;2.22;100;93886.8;;;;
2021/01/21 03:06:27;;;;;;;3.45;2.4;;;;;;;2.22;100;93886.8;;;;
2021/01/21 03:07:29;;;;;;;3.45;2.4;;;;;;;2.22;100;93886.8;;;;
2021/01/21 03:08:31;;;;;;;3.45;2.4;;;;;;;2.22;100;93886.8;;;;
2021/01/21 03:09:32;;;;;;;3.45;2.4;;;;;;;2.22;100;93886.8;;;;
2021/01/21 03:10:33;;;;;;;3.45;2.4;;;;;;;2.22;100;93886.8;;;;
2021/01/21 03:11:34;;;;;;;3.45;2.4;;;;;;;2.22;100;93886.8;;;;
2021/01/21 03:12:34;;;;;;;3.45;2.4;;;;;;;2.22;100;93886.8;;;;
2021/01/21 03:13:35;;;;;;;3.6;2.5;;;;;;;1.82;100;93881.82;;;;
2021/01/21 03:14:37;;;;;;;3.6;2.5;;;;;;;1.82;100;93881.82;;;;
2021/01/21 03:15:38;;;;;;;3.6;2.5;;;;;;;1.82;100;93881.82;;;;
2021/01/21 03:16:38;;;;;;;3.6;2.5;;;;;;;1.82;100;93881.82;;;;
2021/01/21 03:17:39;;;;;;;3.6;2.5;;;;;;;1.82;100;93881.82;;;;
2021/01/21 03:18:39;;;;;;;3.6;2.5;;;;;;;1.82;100;93881.82;;;;
2021/01/21 03:19:40;;;;;;;3.6;2.5;;;;;;;1.82;100;93881.82;;;;
2021/01/21 03:20:40;;;;;;;3.6;2.5;;;;;;;1.82;100;93881.82;;;;
2021/01/21 03:21:40;;;;;;;3.6;2.5;;;;;;;1.82;100;93881.82;;;;
2021/01/21 03:22:41;;;;;;;3.6;2.5;;;;;;;1.82;100;93881.82;;;;
2021/01/21 03:23:42;;;;;;;3.1;2.35;;;;;;;1.48;100;93892;;;;
2021/01/21 03:24:42;;;;;;;3.1;2.35;;;;;;;1.48;100;93892;;;;
2021/01/21 03:25:43;;;;;;;3.1;2.35;;;;;;;1.48;100;93892;;;;
2021/01/21 03:26:43;;;;;;;3.1;2.35;;;;;;;1.48;100;93892;;;;
2021/01/21 03:27:44;;;;;;;3.1;2.35;;;;;;;1.48;100;93892;;;;
2021/01/21 03:28:44;;;;;;;3.1;2.35;;;;;;;1.48;100;93892;;;;
2021/01/21 03:29:45;;;;;;;3.1;2.35;;;;;;;1.48;100;93892;;;;
2021/01/21 03:30:45;;;;;;;3.1;2.35;;;;;;;1.48;100;93892;;;;
2021/01/21 03:31:46;;;;;;;3.1;2.35;;;;;;;1.48;100;93892;;;;
2021/01/21 03:32:47;;;;;;;3.1;2.35;;;;;;;1.48;100;93892;;;;
2021/01/21 03:33:47;;;;;;;3.1;2.35;;;;;;;1.48;100;93892;;;;
2021/01/21 03:34:48;;;;;;;4.35;2.75;;;;;;;1.2;100;93907.53;;;;
2021/01/21 03:35:48;;;;;;;4.35;2.75;;;;;;;1.2;100;93907.53;;;;
2021/01/21 03:36:49;;;;;;;4.35;2.75;;;;;;;1.2;100;93907.53;;;;
2021/01/21 03:37:49;;;;;;;4.35;2.75;;;;;;;1.2;100;93907.53;;;;
2021/01/21 03:38:49;;;;;;;4.35;2.75;;;;;;;1.2;100;93907.53;;;;
2021/01/21 03:39:50;;;;;;;4.35;2.75;;;;;;;1.2;100;93907.53;;;;
2021/01/21 03:40:51;;;;;;;4.35;2.75;;;;;;;1.2;100;93907.53;;;;
2021/01/21 03:41:51;;;;;;;4.35;2.75;;;;;;;1.2;100;93907.53;;;;
2021/01/21 03:42:52;;;;;;;4.35;2.75;;;;;;;1.2;100;93907.53;;;;
2021/01/21 03:43:53;;;;;;;4.35;2.75;;;;;;;1.2;100;93907.53;;;;
2021/01/21 03:44:53;;;;;;;4.299999;2.6;;;;;;;0.99;100;93896.39;;;;
2021/01/21 03:45:54;;;;;;;4.299999;2.6;;;;;;;0.99;100;93896.39;;;;
2021/01/21 03:46:54;;;;;;;4.299999;2.6;;;;;;;0.99;100;93896.39;;;;
2021/01/21 03:47:55;;;;;;;4.299999;2.6;;;;;;;0.99;100;93896.39;;;;
2021/01/21 03:48:55;;;;;;;4.299999;2.6;;;;;;;0.99;100;93896.39;;;;
2021/01/21 03:49:55;;;;;;;4.299999;2.6;;;;;;;0.99;100;93896.39;;;;
2021/01/21 03:50:56;;;;;;;4.299999;2.6;;;;;;;0.99;100;93896.39;;;;
2021/01/21 03:51:56;;;;;;;4.299999;2.6;;;;;;;0.99;100;93896.39;;;;
2021/01/21 03:52:57;;;;;;;4.299999;2.6;;;;;;;0.99;100;93896.39;;;;
2021/01/21 03:53:57;;;;;;;4.299999;2.6;;;;;;;0.99;100;93896.39;;;;
2021/01/21 03:54:58;;;;;;;4.299999;2.6;;;;;;;0.99;100;93896.39;;;;
2021/01/21 03:55:58;;;;;;;4.149999;2.7;;;;;;;0.74;100;93908.63;;;;
2021/01/21 03:56:59;;;;;;;4.149999;2.7;;;;;;;0.74;100;93908.63;;;;
2021/01/21 03:57:59;;;;;;;4.149999;2.7;;;;;;;0.74;100;93908.63;;;;
2021/01/21 03:59:00;;;;;;;4.149999;2.7;;;;;;;0.74;100;93908.63;;;;
2021/01/21 04:00:00;;;;;;;4.149999;2.7;;;;;;;0.74;100;93908.63;;;;
2021/01/21 04:01:01;;;;;;;4.149999;2.7;;;;;;;0.74;100;93908.63;;;;
2021/01/21 04:02:02;;;;;;;4.149999;2.7;;;;;;;0.74;100;93908.63;;;;
2021/01/21 04:03:02;;;;;;;4.149999;2.7;;;;;;;0.74;100;93908.63;;;;
2021/01/21 04:04:03;;;;;;;4.149999;2.7;;;;;;;0.74;100;93908.63;;;;
2021/01/21 04:05:04;;;;;;;4.149999;2.7;;;;;;;0.74;100;93908.63;;;;
2021/01/21 04:06:06;;;;;;;4.149999;2.7;;;;;;;0.74;100;93908.63;;;;
2021/01/21 04:07:06;;;;;;;5.2;3.15;;;;;;;0.45;100;93930.9;;;;
2021/01/21 04:08:06;;;;;;;5.2;3.15;;;;;;;0.45;100;93930.9;;;;
2021/01/21 04:09:07;;;;;;;5.2;3.15;;;;;;;0.45;100;93930.9;;;;
2021/01/21 04:10:07;;;;;;;5.2;3.15;;;;;;;0.45;100;93930.9;;;;
2021/01/21 04:11:08;;;;;;;5.2;3.15;;;;;;;0.45;100;93930.9;;;;
2021/01/21 04:12:09;;;;;;;5.2;3.15;;;;;;;0.45;100;93930.9;;;;
2021/01/21 04:13:09;;;;;;;5.2;3.15;;;;;;;0.45;100;93930.9;;;;
2021/01/21 04:14:10;;;;;;;5.2;3.15;;;;;;;0.45;100;93930.9;;;;
2021/01/21 04:15:10;;;;;;;5.2;3.15;;;;;;;0.45;100;93930.9;;;;
2021/01/21 04:16:11;;;;;;;5.2;3.15;;;;;;;0.45;100;93930.9;;;;
2021/01/21 04:17:12;;;;;;;5.400001;2.900001;;;;;;;0.17;100;93923.17;;;;
2021/01/21 04:18:12;;;;;;;5.400001;2.900001;;;;;;;0.17;100;93923.17;;;;
2021/01/21 04:19:13;;;;;;;5.400001;2.900001;;;;;;;0.17;100;93923.17;;;;
2021/01/21 04:20:13;;;;;;;5.400001;2.900001;;;;;;;0.17;100;93923.17;;;;
2021/01/21 04:21:14;;;;;;;5.400001;2.900001;;;;;;;0.17;100;93923.17;;;;
2021/01/21 04:22:15;;;;;;;5.400001;2.900001;;;;;;;0.17;100;93923.17;;;;
2021/01/21 04:23:15;;;;;;;5.400001;2.900001;;;;;;;0.17;100;93923.17;;;;
2021/01/21 04:24:16;;;;;;;5.400001;2.900001;;;;;;;0.17;100;93923.17;;;;
2021/01/21 04:25:16;;;;;;;5.400001;2.900001;;;;;;;0.17;100;93923.17;;;;
2021/01/21 04:26:17;;;;;;;5.400001;2.900001;;;;;;;0.17;100;93923.17;;;;
2021/01/21 04:27:17;;;;;;;5.400001;2.900001;;;;;;;0.17;100;93923.17;;;;
2021/01/21 04:28:18;;;;;;;3.55;2.45;;;;;;;-0.16;100;93920.12;;;;
2021/01/21 04:29:19;;;;;;;3.55;2.45;;;;;;;-0.16;100;93920.12;;;;
2021/01/21 04:30:19;;;;;;;3.55;2.45;;;;;;;-0.16;100;93920.12;;;;
2021/01/21 04:31:21;;;;;;;3.55;2.45;;;;;;;-0.16;100;93920.12;;;;
2021/01/21 04:32:21;;;;;;;3.55;2.45;;;;;;;-0.16;100;93920.12;;;;
2021/01/21 04:33:22;;;;;;;3.55;2.45;;;;;;;-0.16;100;93920.12;;;;
2021/01/21 04:34:23;;;;;;;3.55;2.45;;;;;;;-0.16;100;93920.12;;;;
2021/01/21 04:35:23;;;;;;;3.55;2.45;;;;;;;-0.16;100;93920.12;;;;
2021/01/21 04:36:24;;;;;;;3.55;2.45;;;;;;;-0.16;100;93920.12;;;;
2021/01/21 04:37:24;;;;;;;3.55;2.45;;;;;;;-0.16;100;93920.12;;;;
2021/01/21 04:38:24;;;;;;;4.900001;2.6;;;;;;;-0.38;100;93909.94;;;;
2021/01/21 04:39:25;;;;;;;4.900001;2.6;;;;;;;-0.38;100;93909.94;;;;
2021/01/21 04:40:26;;;;;;;4.900001;2.6;;;;;;;-0.38;100;93909.94;;;;
2021/01/21 04:41:27;;;;;;;4.900001;2.6;;;;;;;-0.38;100;93909.94;;;;
2021/01/21 04:42:27;;;;;;;4.900001;2.6;;;;;;;-0.38;100;93909.94;;;;
2021/01/21 04:43:28;;;;;;;4.900001;2.6;;;;;;;-0.38;100;93909.94;;;;
2021/01/21 04:44:28;;;;;;;4.900001;2.6;;;;;;;-0.38;100;93909.94;;;;
2021/01/21 04:45:29;;;;;;;4.900001;2.6;;;;;;;-0.38;100;93909.94;;;;
2021/01/21 04:46:30;;;;;;;4.900001;2.6;;;;;;;-0.38;100;93909.94;;;;
2021/01/21 04:47:30;;;;;;;4.900001;2.6;;;;;;;-0.38;100;93909.94;;;;
2021/01/21 04:48:31;;;;;;;4.900001;2.6;;;;;;;-0.38;100;93909.94;;;;
2021/01/21 04:49:32;;;;;;;4.099999;2.6;;;;;;;-0.55;100;93896.67;;;;
2021/01/21 04:50:36;;;;;;;4.099999;2.6;;;;;;;-0.55;100;93896.67;;;;
2021/01/21 04:51:38;;;;;;;4.099999;2.6;;;;;;;-0.55;100;93896.67;;;;
2021/01/21 04:52:40;;;;;;;4.099999;2.6;;;;;;;-0.55;100;93896.67;;;;
2021/01/21 04:53:43;;;;;;;4.099999;2.6;;;;;;;-0.55;100;93896.67;;;;
2021/01/21 04:54:48;;;;;;;4.099999;2.6;;;;;;;-0.55;100;93896.67;;;;
2021/01/21 04:55:54;;;;;;;4.099999;2.6;;;;;;;-0.55;100;93896.67;;;;
2021/01/21 04:56:59;;;;;;;4.099999;2.6;;;;;;;-0.55;100;93896.67;;;;
2021/01/21 04:58:02;;;;;;;4.099999;2.6;;;;;;;-0.55;100;93896.67;;;;
2021/01/21 04:59:12;;;;;;;4.099999;2.6;;;;;;;-0.55;100;93896.67;;;;
2021/01/21 05:00:16;;;;;;;3.45;2.35;;;;;;;-0.74;100;93908.58;;;;
2021/01/21 05:01:17;;;;;;;3.45;2.35;;;;;;;-0.74;100;93908.58;;;;
2021/01/21 05:02:18;;;;;;;3.45;2.35;;;;;;;-0.74;100;93908.58;;;;
2021/01/21 05:03:20;;;;;;;3.45;2.35;;;;;;;-0.74;100;93908.58;;;;
2021/01/21 05:04:21;;;;;;;3.45;2.35;;;;;;;-0.74;100;93908.58;;;;
2021/01/21 05:05:22;;;;;;;3.45;2.35;;;;;;;-0.74;100;93908.58;;;;
2021/01/21 05:06:22;;;;;;;3.45;2.35;;;;;;;-0.74;100;93908.58;;;;
2021/01/21 05:07:23;;;;;;;3.45;2.35;;;;;;;-0.74;100;93908.58;;;;
2021/01/21 05:08:24;;;;;;;3.45;2.35;;;;;;;-0.74;100;93908.58;;;;
2021/01/21 05:09:25;;;;;;;3.45;2.35;;;;;;;-0.74;100;93908.58;;;;
2021/01/21 05:10:26;;;;;;;5.3;2.3;;;;;;;-0.84;100;93911.19;;;;
2021/01/21 05:11:27;;;;;;;5.3;2.3;;;;;;;-0.84;100;93911.19;;;;
2021/01/21 05:12:28;;;;;;;5.3;2.3;;;;;;;-0.84;100;93911.19;;;;
2021/01/21 05:13:28;;;;;;;5.3;2.3;;;;;;;-0.84;100;93911.19;;;;
2021/01/21 05:14:29;;;;;;;5.3;2.3;;;;;;;-0.84;100;93911.19;;;;
2021/01/21 05:15:30;;;;;;;5.3;2.3;;;;;;;-0.84;100;93911.19;;;;
2021/01/21 05:16:30;;;;;;;5.3;2.3;;;;;;;-0.84;100;93911.19;;;;
2021/01/21 05:17:31;;;;;;;5.3;2.3;;;;;;;-0.84;100;93911.19;;;;
2021/01/21 05:18:32;;;;;;;5.3;2.3;;;;;;;-0.84;100;93911.19;;;;
2021/01/21 05:19:37;;;;;;;5.3;2.3;;;;;;;-0.84;100;93911.19;;;;
2021/01/21 05:20:37;;;;;;;5.3;2.3;;;;;;;-0.84;100;93911.19;;;;
2021/01/21 05:21:38;;;;;;;5.05;2.7;;;;;;;-0.94;100;93910.77;;;;
2021/01/21 05:22:39;;;;;;;5.05;2.7;;;;;;;-0.94;100;93910.77;;;;
2021/01/21 05:23:39;;;;;;;5.05;2.7;;;;;;;-0.94;100;93910.77;;;;
2021/01/21 05:24:40;;;;;;;5.05;2.7;;;;;;;-0.94;100;93910.77;;;;
2021/01/21 05:25:40;;;;;;;5.05;2.7;;;;;;;-0.94;100;93910.77;;;;
2021/01/21 05:26:41;;;;;;;5.05;2.7;;;;;;;-0.94;100;93910.77;;;;
2021/01/21 05:27:44;;;;;;;5.05;2.7;;;;;;;-0.94;100;93910.77;;;;
2021/01/21 05:28:44;;;;;;;5.05;2.7;;;;;;;-0.94;100;93910.77;;;;
2021/01/21 05:29:45;;;;;;;5.05;2.7;;;;;;;-0.94;100;93910.77;;;;
2021/01/21 05:30:46;;;;;;;5.05;2.7;;;;;;;-0.94;100;93910.77;;;;
2021/01/21 05:31:48;;;;;;;5.2;2.65;;;;;;;-0.86;100;93900.8;;;;
2021/01/21 05:32:49;;;;;;;5.2;2.65;;;;;;;-0.86;100;93900.8;;;;
2021/01/21 05:33:50;;;;;;;5.2;2.65;;;;;;;-0.86;100;93900.8;;;;
2021/01/21 05:34:51;;;;;;;5.2;2.65;;;;;;;-0.86;100;93900.8;;;;
2021/01/21 05:35:51;;;;;;;5.2;2.65;;;;;;;-0.86;100;93900.8;;;;
2021/01/21 05:36:53;;;;;;;5.2;2.65;;;;;;;-0.86;100;93900.8;;;;
2021/01/21 05:37:55;;;;;;;5.2;2.65;;;;;;;-0.86;100;93900.8;;;;
2021/01/21 05:38:58;;;;;;;5.2;2.65;;;;;;;-0.86;100;93900.8;;;;
2021/01/21 05:39:58;;;;;;;5.2;2.65;;;;;;;-0.86;100;93900.8;;;;
2021/01/21 05:41:02;;;;;;;5.2;2.65;;;;;;;-0.86;100;93900.8;;;;
2021/01/21 05:42:02;;;;;;;5.2;2.65;;;;;;;-0.86;100;93900.8;;;;
2021/01/21 05:43:04;;;;;;;4.45;2.45;;;;;;;-0.65;100;93914.4;;;;
2021/01/21 05:44:05;;;;;;;4.45;2.45;;;;;;;-0.65;100;93914.4;;;;
2021/01/21 05:45:07;;;;;;;4.45;2.45;;;;;;;-0.65;100;93914.4;;;;
2021/01/21 05:46:08;;;;;;;4.45;2.45;;;;;;;-0.65;100;93914.4;;;;
2021/01/21 05:47:08;;;;;;;4.45;2.45;;;;;;;-0.65;100;93914.4;;;;
2021/01/21 05:48:09;;;;;;;4.45;2.45;;;;;;;-0.65;100;93914.4;;;;
2021/01/21 05:49:12;;;;;;;4.45;2.45;;;;;;;-0.65;100;93914.4;;;;
2021/01/21 05:50:12;;;;;;;4.45;2.45;;;;;;;-0.65;100;93914.4;;;;
2021/01/21 05:51:13;;;;;;;4.45;2.45;;;;;;;-0.65;100;93914.4;;;;
2021/01/21 05:52:14;;;;;;;4.45;2.45;;;;;;;-0.65;100;93914.4;;;;
2021/01/21 05:53:17;;;;;;;4.349999;2.5;;;;;;;-0.47;100;93909.83;;;;
2021/01/21 05:54:18;;;;;;;4.349999;2.5;;;;;;;-0.47;100;93909.83;;;;
2021/01/21 05:55:18;;;;;;;4.349999;2.5;;;;;;;-0.47;100;93909.83;;;;
2021/01/21 05:56:22;;;;;;;4.349999;2.5;;;;;;;-0.47;100;93909.83;;;;
2021/01/21 05:57:23;;;;;;;4.349999;2.5;;;;;;;-0.47;100;93909.83;;;;
2021/01/21 05:58:24;;;;;;;4.349999;2.5;;;;;;;-0.47;100;93909.83;;;;
2021/01/21 05:59:25;;;;;;;4.349999;2.5;;;;;;;-0.47;100;93909.83;;;;
2021/01/21 06:00:28;;;;;;;4.349999;2.5;;;;;;;-0.47;100;93909.83;;;;
2021/01/21 06:01:30;;;;;;;4.349999;2.5;;;;;;;-0.47;100;93909.83;;;;
2021/01/21 06:02:32;;;;;;;4.349999;2.5;;;;;;;-0.47;100;93909.83;;;;
2021/01/21 06:03:32;;;;;;;4.349999;2.5;;;;;;;-0.47;100;93909.83;;;;
2021/01/21 06:04:34;;;;;;;3.4;2.4;;;;;;;-0.45;100;93915.75;;;;
2021/01/21 06:05:36;;;;;;;3.4;2.4;;;;;;;-0.45;100;93915.75;;;;
2021/01/21 06:06:38;;;;;;;3.4;2.4;;;;;;;-0.45;100;93915.75;;;;
2021/01/21 06:07:39;;;;;;;3.4;2.4;;;;;;;-0.45;100;93915.75;;;;
2021/01/21 06:08:40;;;;;;;3.4;2.4;;;;;;;-0.45;100;93915.75;;;;
2021/01/21 06:09:41;;;;;;;3.4;2.4;;;;;;;-0.45;100;93915.75;;;;
2021/01/21 06:10:42;;;;;;;3.4;2.4;;;;;;;-0.45;100;93915.75;;;;
2021/01/21 06:11:44;;;;;;;3.4;2.4;;;;;;;-0.45;100;93915.75;;;;
2021/01/21 06:12:45;;;;;;;3.4;2.4;;;;;;;-0.45;100;93915.75;;;;
2021/01/21 06:13:48;;;;;;;3.4;2.4;;;;;;;-0.45;100;93915.75;;;;
2021/01/21 06:14:48;;;;;;;4.15;2.4;;;;;;;-0.38;100;93919.22;;;;
2021/01/21 06:15:49;;;;;;;4.15;2.4;;;;;;;-0.38;100;93919.22;;;;
2021/01/21 06:16:50;;;;;;;4.15;2.4;;;;;;;-0.38;100;93919.22;;;;
2021/01/21 06:17:51;;;;;;;4.15;2.4;;;;;;;-0.38;100;93919.22;;;;
2021/01/21 06:18:52;;;;;;;4.15;2.4;;;;;;;-0.38;100;93919.22;;;;
2021/01/21 06:19:52;;;;;;;4.15;2.4;;;;;;;-0.38;100;93919.22;;;;